Time;durP1;ratioP1;P1;durP2;ratioP2;P2;SDS_P1;SDS_P2;PMS_P1;PMS_P2;Temp;Humidity;BMP_temperature;BMP_pressure;BME280_temperature;BME280_humidity;BME280_pressure;Samples;Min_cycle;Max_cycle;Signal;HPM_P1;HPM_P2
2021/10/26 00:00:21;;;;;;;215.80;200.50;;;11.10;99.90;;;;;;5049588;28;20304;-81
2021/10/26 00:02:47;;;;;;;201.87;186.97;;;11.10;99.90;;;;;;5047560;28;20197;-80
2021/10/26 00:05:15;;;;;;;207.70;192.80;;;11.10;99.90;;;;;;5052679;28;20186;-80
2021/10/26 00:07:40;;;;;;;201.70;186.50;;;11.10;99.90;;;;;;5050386;28;20624;-80
2021/10/26 00:10:12;;;;;;;202.13;187.80;;;11.20;99.90;;;;;;5049860;28;20164;-80
2021/10/26 00:12:37;;;;;;;207.38;192.35;;;11.20;99.90;;;;;;5050657;28;20157;-81
2021/10/26 00:15:04;;;;;;;219.47;204.03;;;11.20;99.90;;;;;;5049686;28;20166;-81
2021/10/26 00:17:30;;;;;;;204.65;189.65;;;11.20;99.90;;;;;;5047256;28;20192;-81
2021/10/26 00:19:56;;;;;;;212.82;198.13;;;11.20;99.90;;;;;;5048499;28;20169;-81
2021/10/26 00:22:22;;;;;;;220.13;205.20;;;11.20;99.90;;;;;;5045477;28;20244;-81
2021/10/26 00:24:47;;;;;;;203.50;189.03;;;11.20;99.90;;;;;;5049938;28;20249;-81
2021/10/26 00:27:13;;;;;;;218.20;202.63;;;11.20;99.90;;;;;;5047903;28;20189;-81
2021/10/26 00:29:39;;;;;;;211.17;196.30;;;11.20;99.90;;;;;;5048261;28;20248;-81
2021/10/26 00:32:05;;;;;;;221.93;206.27;;;11.10;99.90;;;;;;5109259;22;20310;-83
2021/10/26 00:34:30;;;;;;;209.33;194.67;;;11.10;99.90;;;;;;5038175;28;20169;-83
2021/10/26 00:36:56;;;;;;;196.37;182.07;;;11.20;99.90;;;;;;5036942;28;20419;-83
2021/10/26 00:39:22;;;;;;;221.00;205.40;;;11.20;99.90;;;;;;5037250;28;20530;-83
2021/10/26 00:41:48;;;;;;;208.87;193.83;;;11.10;99.90;;;;;;5037686;28;20176;-83
2021/10/26 00:44:14;;;;;;;202.93;187.98;;;11.10;99.90;;;;;;5037547;28;20192;-83
2021/10/26 00:46:40;;;;;;;191.02;176.75;;;11.20;99.90;;;;;;5038624;28;20161;-83
2021/10/26 00:49:11;;;;;;;208.33;193.53;;;11.10;99.90;;;;;;5037263;28;20189;-84
2021/10/26 00:51:39;;;;;;;221.65;206.00;;;11.10;99.90;;;;;;5036938;28;20153;-83
2021/10/26 00:54:09;;;;;;;199.48;185.20;;;11.10;99.90;;;;;;5037640;28;20165;-83
2021/10/26 00:56:35;;;;;;;206.23;191.02;;;11.10;99.90;;;;;;5038247;28;20177;-83
2021/10/26 00:59:01;;;;;;;236.93;221.37;;;11.00;99.90;;;;;;5036902;28;20244;-83
2021/10/26 01:01:30;;;;;;;235.38;219.68;;;11.00;99.90;;;;;;5038193;28;20914;-84
2021/10/26 01:03:56;;;;;;;251.10;234.68;;;11.00;99.90;;;;;;5036900;28;20196;-84
2021/10/26 01:06:22;;;;;;;282.85;265.42;;;11.00;99.90;;;;;;5038195;28;20244;-84
2021/10/26 01:08:49;;;;;;;261.17;244.43;;;11.00;99.90;;;;;;5037806;28;20185;-83
2021/10/26 01:11:14;;;;;;;247.73;231.70;;;11.00;99.90;;;;;;5037061;28;20168;-83
2021/10/26 01:13:41;;;;;;;272.93;255.83;;;11.00;99.90;;;;;;5038254;28;20692;-84
2021/10/26 01:16:07;;;;;;;274.05;256.40;;;11.10;99.90;;;;;;5037279;28;20400;-83
2021/10/26 01:18:33;;;;;;;235.90;220.40;;;11.10;99.90;;;;;;5037580;28;20192;-83
2021/10/26 01:20:59;;;;;;;289.47;271.63;;;11.00;99.90;;;;;;5037160;28;20926;-83
2021/10/26 01:23:26;;;;;;;271.92;255.02;;;11.10;99.90;;;;;;5037513;28;20215;-83
2021/10/26 01:25:52;;;;;;;231.25;215.80;;;11.10;99.90;;;;;;5036697;28;20168;-82
2021/10/26 01:28:18;;;;;;;267.38;250.48;;;11.10;99.90;;;;;;5035544;28;20279;-82
2021/10/26 01:30:46;;;;;;;240.07;224.43;;;11.10;99.90;;;;;;5035500;28;20661;-83
2021/10/26 01:33:11;;;;;;;281.38;263.50;;;11.00;99.90;;;;;;5036584;28;20419;-82
2021/10/26 01:35:37;;;;;;;259.27;242.17;;;11.10;99.90;;;;;;5036754;28;20175;-82
2021/10/26 01:38:04;;;;;;;258.67;241.77;;;11.00;99.90;;;;;;5035382;28;20201;-82
2021/10/26 01:40:30;;;;;;;249.82;233.40;;;11.00;99.90;;;;;;5036611;28;20726;-83
2021/10/26 01:42:57;;;;;;;221.88;207.00;;;11.00;99.90;;;;;;5036801;28;20197;-82
2021/10/26 01:45:22;;;;;;;263.40;245.93;;;11.00;99.90;;;;;;5035742;28;20169;-82
2021/10/26 01:47:48;;;;;;;238.70;222.50;;;11.00;99.90;;;;;;5035860;28;20193;-83
2021/10/26 01:50:16;;;;;;;231.53;216.10;;;11.00;99.90;;;;;;5035026;28;20173;-84
2021/10/26 01:52:43;;;;;;;254.93;237.88;;;11.00;99.90;;;;;;5037069;28;20665;-83
2021/10/26 01:55:10;;;;;;;242.77;226.15;;;11.00;99.90;;;;;;5036773;28;20175;-84
2021/10/26 01:57:36;;;;;;;240.95;224.60;;;11.00;99.90;;;;;;5036904;28;20285;-83
2021/10/26 02:00:08;;;;;;;233.98;218.25;;;10.90;99.90;;;;;;5037055;28;20173;-83
2021/10/26 02:02:34;;;;;;;251.75;234.57;;;10.90;99.90;;;;;;5037570;28;20649;-83
2021/10/26 02:05:00;;;;;;;200.05;185.82;;;10.90;99.90;;;;;;5035752;28;20169;-83
2021/10/26 02:07:26;;;;;;;220.55;205.55;;;11.00;99.90;;;;;;5036976;28;20165;-83
2021/10/26 02:09:52;;;;;;;213.80;198.93;;;10.90;99.90;;;;;;5036650;28;20162;-83
2021/10/26 02:12:17;;;;;;;216.30;201.40;;;10.90;99.90;;;;;;5035109;28;20568;-83
2021/10/26 02:14:43;;;;;;;207.00;192.47;;;10.90;99.90;;;;;;5036256;28;20165;-83
2021/10/26 02:17:09;;;;;;;217.73;202.47;;;10.80;99.90;;;;;;5035078;28;20641;-83
2021/10/26 02:19:40;;;;;;;225.47;210.50;;;10.80;99.90;;;;;;5035512;28;20479;-83
2021/10/26 02:22:06;;;;;;;242.07;226.20;;;10.80;99.90;;;;;;5036226;28;20511;-83
2021/10/26 02:24:32;;;;;;;226.40;211.00;;;10.80;99.90;;;;;;5036548;28;20288;-83
2021/10/26 02:26:58;;;;;;;223.90;208.88;;;10.70;99.90;;;;;;5036418;28;20221;-83
2021/10/26 02:29:26;;;;;;;235.40;219.75;;;10.60;99.90;;;;;;5036343;28;20227;-83
2021/10/26 02:31:56;;;;;;;219.45;204.57;;;10.60;99.90;;;;;;5035642;28;20205;-83
2021/10/26 02:34:21;;;;;;;206.60;191.82;;;10.60;99.90;;;;;;5035148;28;20215;-84
2021/10/26 02:36:48;;;;;;;206.07;191.17;;;10.60;99.90;;;;;;5036884;28;20169;-83
2021/10/26 02:39:14;;;;;;;192.93;178.75;;;10.60;99.90;;;;;;5036171;28;20189;-83
2021/10/26 02:41:43;;;;;;;185.35;171.05;;;10.60;99.90;;;;;;5036610;28;20170;-84
2021/10/26 02:44:09;;;;;;;207.57;192.77;;;10.50;99.90;;;;;;5034968;28;20186;-84
2021/10/26 02:46:34;;;;;;;214.87;200.10;;;10.60;99.90;;;;;;5035873;28;20247;-84
2021/10/26 02:49:00;;;;;;;229.60;213.53;;;10.60;99.90;;;;;;5035102;28;20227;-83
2021/10/26 02:51:26;;;;;;;226.73;211.57;;;10.60;99.90;;;;;;5034727;28;20400;-83
2021/10/26 02:53:52;;;;;;;270.13;253.10;;;10.60;99.90;;;;;;5035724;28;20169;-83
2021/10/26 02:56:18;;;;;;;227.97;212.93;;;10.60;99.90;;;;;;5034523;28;20179;-83
2021/10/26 02:58:44;;;;;;;219.45;204.00;;;10.60;99.90;;;;;;5034313;28;20263;-83
2021/10/26 03:01:10;;;;;;;245.30;229.07;;;10.70;99.90;;;;;;5037331;28;20165;-83
2021/10/26 03:03:36;;;;;;;228.23;213.15;;;10.70;99.90;;;;;;5038683;28;20444;-83
2021/10/26 03:06:03;;;;;;;253.38;236.85;;;10.70;99.90;;;;;;5038017;28;20292;-83
2021/10/26 03:08:29;;;;;;;261.05;244.15;;;10.70;99.90;;;;;;5039526;28;20276;-83
2021/10/26 03:10:54;;;;;;;251.03;234.93;;;10.70;99.90;;;;;;5038836;28;20197;-83
2021/10/26 03:13:23;;;;;;;276.43;258.53;;;10.70;99.90;;;;;;5039626;28;20189;-83
2021/10/26 03:15:49;;;;;;;269.30;252.02;;;10.70;99.90;;;;;;5038967;28;20170;-83
2021/10/26 03:18:15;;;;;;;239.90;224.10;;;10.70;99.90;;;;;;5038855;28;20194;-83
2021/10/26 03:20:41;;;;;;;267.23;250.47;;;10.70;99.90;;;;;;5038889;28;20410;-83
2021/10/26 03:23:08;;;;;;;273.20;256.02;;;10.70;99.90;;;;;;5037550;28;20451;-83
2021/10/26 03:25:34;;;;;;;238.52;222.85;;;10.70;99.90;;;;;;5039102;28;20249;-83
2021/10/26 03:27:59;;;;;;;274.23;256.83;;;10.70;99.90;;;;;;5039140;28;20660;-83
2021/10/26 03:30:25;;;;;;;248.57;232.70;;;10.80;99.90;;;;;;5037123;28;20211;-83
2021/10/26 03:32:52;;;;;;;241.10;225.35;;;10.80;99.90;;;;;;5037136;28;20256;-84
2021/10/26 03:35:19;;;;;;;235.20;219.68;;;10.80;99.90;;;;;;5037178;28;20200;-83
2021/10/26 03:37:45;;;;;;;242.10;226.38;;;10.80;99.90;;;;;;5038667;28;20192;-84
2021/10/26 03:40:12;;;;;;;235.90;220.18;;;10.80;99.90;;;;;;5038028;28;20197;-84
2021/10/26 03:42:39;;;;;;;238.30;221.95;;;10.70;99.90;;;;;;5036797;28;20208;-83
2021/10/26 03:45:06;;;;;;;216.90;201.95;;;10.70;99.90;;;;;;5037817;28;20186;-83
2021/10/26 03:47:36;;;;;;;185.18;171.40;;;10.70;99.90;;;;;;5038795;28;20166;-83
2021/10/26 03:50:02;;;;;;;205.82;191.25;;;10.60;99.90;;;;;;5038505;28;20677;-83
2021/10/26 03:52:28;;;;;;;189.93;175.43;;;10.50;99.90;;;;;;5037402;28;20212;-83
2021/10/26 03:54:56;;;;;;;209.27;194.17;;;10.50;99.90;;;;;;5038146;28;20464;-83
2021/10/26 03:57:21;;;;;;;224.25;208.70;;;10.40;99.90;;;;;;5037079;28;20560;-83
2021/10/26 03:59:49;;;;;;;209.40;194.97;;;10.30;99.90;;;;;;5037026;28;20180;-83
2021/10/26 04:02:25;;;;;;;261.10;244.20;;;10.40;99.90;;;;;;5036720;28;20166;-83
2021/10/26 04:04:58;;;;;;;253.52;237.13;;;10.30;99.90;;;;;;5037905;28;20142;-83
2021/10/26 04:07:25;;;;;;;258.58;241.80;;;10.30;99.90;;;;;;5038326;28;20145;-83
2021/10/26 04:10:02;;;;;;;272.98;256.13;;;10.10;99.90;;;;;;5038839;28;20162;-83
2021/10/26 04:12:27;;;;;;;254.80;238.45;;;10.10;99.90;;;;;;5036155;28;20188;-83
2021/10/26 04:14:55;;;;;;;284.27;266.97;;;10.10;99.90;;;;;;5038464;28;20180;-83
2021/10/26 04:17:27;;;;;;;278.65;261.15;;;10.00;99.90;;;;;;5038730;28;20582;-83
2021/10/26 04:19:54;;;;;;;278.65;261.60;;;10.00;99.90;;;;;;5037545;28;20572;-83
2021/10/26 04:22:21;;;;;;;268.80;251.95;;;9.90;99.90;;;;;;5038175;28;20530;-83
2021/10/26 04:24:49;;;;;;;252.50;236.63;;;9.80;99.90;;;;;;5037070;28;20587;-83
2021/10/26 04:27:16;;;;;;;262.52;245.85;;;9.90;99.90;;;;;;5038528;28;20157;-83
2021/10/26 04:29:42;;;;;;;244.90;228.85;;;9.80;99.90;;;;;;5036568;28;20166;-82
2021/10/26 04:32:10;;;;;;;260.23;243.90;;;9.70;99.90;;;;;;5037339;28;20177;-83
2021/10/26 04:34:37;;;;;;;281.25;262.38;;;9.70;99.90;;;;;;5037695;28;20648;-83
2021/10/26 04:37:06;;;;;;;262.00;245.10;;;9.70;99.90;;;;;;5037021;28;20166;-83
2021/10/26 04:39:36;;;;;;;304.67;286.20;;;9.60;99.90;;;;;;5037700;28;20189;-83
2021/10/26 04:42:03;;;;;;;258.60;242.30;;;9.60;99.90;;;;;;5037632;28;20687;-83
2021/10/26 04:44:31;;;;;;;255.52;239.38;;;9.50;99.90;;;;;;5037434;28;20268;-83
2021/10/26 04:46:57;;;;;;;264.60;247.90;;;9.40;99.90;;;;;;5036097;28;20200;-83
2021/10/26 04:49:22;;;;;;;289.77;272.53;;;9.40;99.90;;;;;;5036873;28;20661;-83
2021/10/26 04:51:51;;;;;;;261.23;243.97;;;9.40;99.90;;;;;;5035576;28;20529;-83
2021/10/26 04:54:16;;;;;;;276.95;260.05;;;9.20;99.90;;;;;;5037123;28;20245;-83
2021/10/26 04:56:42;;;;;;;243.47;227.63;;;9.20;99.90;;;;;;5035813;28;20196;-83
2021/10/26 04:59:08;;;;;;;281.17;263.97;;;9.10;99.90;;;;;;5035598;28;20193;-83
2021/10/26 05:01:33;;;;;;;309.27;291.23;;;9.10;99.90;;;;;;5035622;28;20176;-83
2021/10/26 05:03:59;;;;;;;305.73;287.97;;;9.10;99.90;;;;;;5036455;28;20561;-84
2021/10/26 05:06:25;;;;;;;314.50;296.53;;;9.10;99.90;;;;;;5035461;28;20176;-83
2021/10/26 05:08:52;;;;;;;332.73;313.67;;;9.10;99.90;;;;;;5035092;28;20666;-83
2021/10/26 05:11:23;;;;;;;252.95;236.55;;;9.10;99.90;;;;;;5035534;28;20923;-83
2021/10/26 05:13:49;;;;;;;307.10;289.02;;;9.00;99.90;;;;;;5036869;28;20184;-83
2021/10/26 05:16:15;;;;;;;319.73;301.48;;;9.00;99.90;;;;;;5035312;28;20173;-83
2021/10/26 05:18:44;;;;;;;320.33;301.95;;;9.00;99.90;;;;;;5034568;28;20192;-83
2021/10/26 05:21:16;;;;;;;330.95;312.00;;;9.00;99.90;;;;;;5036241;28;20596;-83
2021/10/26 05:23:45;;;;;;;278.13;260.85;;;9.00;99.90;;;;;;5034236;28;20193;-83
2021/10/26 05:26:11;;;;;;;285.15;268.05;;;8.90;99.90;;;;;;5035081;28;20223;-83
2021/10/26 05:28:37;;;;;;;300.30;282.63;;;8.90;99.90;;;;;;5035263;28;20185;-83
2021/10/26 05:31:03;;;;;;;295.33;277.77;;;9.00;99.90;;;;;;5035576;28;20165;-83
2021/10/26 05:33:29;;;;;;;326.07;307.20;;;9.10;99.90;;;;;;5037203;28;20613;-83
2021/10/26 05:35:55;;;;;;;343.15;323.77;;;9.10;99.90;;;;;;5036922;28;20166;-84
2021/10/26 05:38:20;;;;;;;294.70;277.07;;;9.00;99.90;;;;;;5036314;28;20200;-84
2021/10/26 05:40:46;;;;;;;316.87;298.37;;;8.90;99.90;;;;;;5035870;28;20215;-83
2021/10/26 05:43:18;;;;;;;313.77;295.07;;;8.90;99.90;;;;;;5035857;28;20188;-83
2021/10/26 05:45:46;;;;;;;225.65;209.60;;;8.90;99.90;;;;;;5034387;28;20485;-83
2021/10/26 05:48:13;;;;;;;280.63;263.80;;;8.90;99.90;;;;;;5034523;28;20182;-83
2021/10/26 05:50:39;;;;;;;196.65;181.75;;;8.90;99.90;;;;;;5036635;28;20690;-83
2021/10/26 05:53:05;;;;;;;210.85;196.02;;;8.90;99.90;;;;;;5034695;28;20177;-83
2021/10/26 05:55:31;;;;;;;161.83;148.43;;;8.90;99.90;;;;;;5035786;28;20174;-83
2021/10/26 05:57:57;;;;;;;153.07;139.97;;;9.00;99.90;;;;;;5034533;28;20268;-83
2021/10/26 06:00:25;;;;;;;242.93;226.70;;;9.10;99.90;;;;;;5035228;28;20192;-83
2021/10/26 06:02:51;;;;;;;201.40;186.88;;;9.10;99.90;;;;;;5035346;28;20199;-83
2021/10/26 06:05:17;;;;;;;190.53;176.63;;;9.10;99.90;;;;;;5036294;28;20750;-84
2021/10/26 06:07:43;;;;;;;206.70;191.77;;;9.20;99.90;;;;;;5034551;28;20432;-84
2021/10/26 06:10:09;;;;;;;239.57;223.77;;;9.20;99.90;;;;;;5035735;28;20157;-84
2021/10/26 06:12:37;;;;;;;255.80;239.13;;;9.20;99.90;;;;;;5035837;28;20486;-84
2021/10/26 06:15:04;;;;;;;224.75;209.25;;;9.20;99.90;;;;;;5035586;28;20157;-84
2021/10/26 06:17:30;;;;;;;214.07;199.27;;;9.10;99.90;;;;;;5034800;28;20660;-84
2021/10/26 06:19:56;;;;;;;207.17;192.23;;;9.10;99.90;;;;;;5036002;28;20161;-84
2021/10/26 06:22:21;;;;;;;230.47;215.13;;;9.20;99.90;;;;;;5035362;28;20416;-84
2021/10/26 06:24:48;;;;;;;235.03;219.30;;;9.10;99.90;;;;;;5036246;28;20404;-84
2021/10/26 06:27:14;;;;;;;221.35;205.80;;;9.20;99.90;;;;;;5036111;28;20165;-84
2021/10/26 06:29:41;;;;;;;204.30;189.15;;;9.10;99.90;;;;;;5034690;28;20191;-85
2021/10/26 06:32:07;;;;;;;192.55;178.43;;;9.10;99.90;;;;;;5037566;28;20609;-85
2021/10/26 06:34:33;;;;;;;216.40;201.35;;;9.00;99.90;;;;;;5037341;28;20165;-85
2021/10/26 06:36:58;;;;;;;174.27;160.57;;;9.10;99.90;;;;;;5041004;28;20311;-85
2021/10/26 06:39:24;;;;;;;191.07;176.43;;;9.00;99.90;;;;;;5040197;28;20436;-85
2021/10/26 06:41:50;;;;;;;236.37;218.80;;;9.20;99.90;;;;;;5041437;28;20254;-85
2021/10/26 06:44:16;;;;;;;237.47;221.60;;;9.20;99.90;;;;;;5039294;28;20214;-85
2021/10/26 06:46:42;;;;;;;308.70;288.97;;;9.30;99.90;;;;;;5040993;28;20454;-85
2021/10/26 06:49:09;;;;;;;341.83;321.60;;;9.40;99.90;;;;;;5039494;28;20426;-84
2021/10/26 06:51:34;;;;;;;263.85;246.70;;;9.40;99.90;;;;;;5040344;28;20161;-84
2021/10/26 06:54:01;;;;;;;245.97;230.00;;;9.40;99.90;;;;;;5039109;28;20195;-84
2021/10/26 06:56:28;;;;;;;272.90;255.35;;;9.50;99.90;;;;;;5039484;28;20177;-84
2021/10/26 06:58:54;;;;;;;214.57;199.43;;;9.50;99.90;;;;;;5039116;28;20734;-84
2021/10/26 07:01:25;;;;;;;327.95;308.23;;;9.50;99.90;;;;;;5041297;28;20173;-84
2021/10/26 07:03:51;;;;;;;331.98;312.42;;;9.60;99.90;;;;;;5039281;28;20200;-85
2021/10/26 07:06:17;;;;;;;307.47;289.30;;;9.60;99.90;;;;;;5041023;28;20173;-85
2021/10/26 07:08:44;;;;;;;315.47;296.67;;;9.60;99.90;;;;;;5043635;28;20191;-84
2021/10/26 07:11:09;;;;;;;342.52;322.35;;;9.60;99.90;;;;;;5043560;28;20176;-84
2021/10/26 07:13:41;;;;;;;271.90;254.37;;;9.60;99.90;;;;;;5042103;28;20173;-84
2021/10/26 07:16:10;;;;;;;259.58;242.93;;;9.70;99.90;;;;;;5042073;28;20252;-84
2021/10/26 07:18:36;;;;;;;273.63;256.58;;;9.70;99.90;;;;;;5041997;28;20552;-83
2021/10/26 07:21:02;;;;;;;282.58;264.55;;;9.70;99.90;;;;;;5041776;28;20161;-84
2021/10/26 07:23:27;;;;;;;338.52;318.90;;;9.80;99.90;;;;;;5041403;28;20211;-84
2021/10/26 07:25:54;;;;;;;378.23;356.73;;;9.90;99.90;;;;;;5040556;28;20264;-84
2021/10/26 07:28:22;;;;;;;418.88;395.88;;;10.00;99.90;;;;;;5040512;28;20200;-84
2021/10/26 07:30:48;;;;;;;404.17;382.38;;;10.20;99.90;;;;;;5038799;28;20219;-84
2021/10/26 07:33:21;;;;;;;418.55;395.88;;;10.30;99.90;;;;;;5040346;28;20548;-85
2021/10/26 07:35:50;;;;;;;371.40;350.80;;;10.40;99.90;;;;;;5040214;28;20234;-84
2021/10/26 07:38:27;;;;;;;382.33;361.33;;;10.50;99.90;;;;;;5040366;28;20193;-84
2021/10/26 07:40:53;;;;;;;416.60;393.33;;;10.60;99.90;;;;;;5040590;28;20153;-84
2021/10/26 07:43:23;;;;;;;393.98;372.20;;;10.70;99.90;;;;;;5038837;28;20193;-84
2021/10/26 07:45:49;;;;;;;416.33;393.90;;;10.80;99.90;;;;;;5039192;28;20166;-85
2021/10/26 07:48:17;;;;;;;382.93;361.93;;;10.90;99.90;;;;;;5038372;28;20198;-84
2021/10/26 07:50:43;;;;;;;384.67;363.00;;;11.00;99.90;;;;;;5038670;28;20165;-84
2021/10/26 07:53:09;;;;;;;420.13;397.52;;;11.10;99.90;;;;;;5040059;28;20177;-84
2021/10/26 07:55:35;;;;;;;346.92;326.58;;;11.20;99.90;;;;;;5037625;28;20215;-84
2021/10/26 07:58:01;;;;;;;343.25;323.10;;;11.20;99.90;;;;;;5038476;28;20195;-84
2021/10/26 08:00:27;;;;;;;344.97;325.20;;;11.30;99.90;;;;;;5038840;28;20169;-84
2021/10/26 08:02:53;;;;;;;347.77;328.17;;;11.40;99.90;;;;;;5038016;28;20200;-84
2021/10/26 08:05:20;;;;;;;323.13;304.03;;;11.50;99.90;;;;;;5037930;28;20799;-84
2021/10/26 08:07:46;;;;;;;290.55;272.98;;;11.50;99.90;;;;;;5038602;28;20174;-86
2021/10/26 08:10:12;;;;;;;260.83;243.87;;;11.50;99.90;;;;;;5039792;28;20224;-84
2021/10/26 08:12:37;;;;;;;306.33;288.27;;;11.50;99.90;;;;;;5037361;28;20204;-84
2021/10/26 08:15:04;;;;;;;349.80;330.43;;;11.60;99.90;;;;;;5039246;28;20185;-84
2021/10/26 08:17:30;;;;;;;289.10;271.58;;;11.70;99.90;;;;;;5038628;28;20215;-84
2021/10/26 08:19:55;;;;;;;353.13;333.10;;;11.70;99.90;;;;;;5038467;28;20161;-84
2021/10/26 08:22:22;;;;;;;343.37;324.27;;;11.70;99.90;;;;;;5040381;28;20172;-84
2021/10/26 08:24:52;;;;;;;387.38;366.30;;;11.80;99.90;;;;;;5037849;28;20247;-84
2021/10/26 08:27:20;;;;;;;369.50;348.30;;;11.90;99.90;;;;;;5040155;28;20252;-83
2021/10/26 08:29:53;;;;;;;353.65;333.90;;;12.00;99.90;;;;;;5038086;28;20243;-83
2021/10/26 08:37:18;;;;;;;218.57;203.35;;;12.10;99.90;;;;;;5038979;28;20173;-84
2021/10/26 08:39:44;;;;;;;220.60;205.33;;;12.10;99.90;;;;;;5037822;28;20250;-84
2021/10/26 08:42:19;;;;;;;212.63;197.38;;;12.20;99.90;;;;;;5039513;28;20158;-84
2021/10/26 08:44:44;;;;;;;245.38;229.98;;;12.20;99.90;;;;;;5041095;28;20196;-84
2021/10/26 08:47:15;;;;;;;221.70;206.90;;;12.20;99.90;;;;;;5040740;28;20170;-84
2021/10/26 08:49:43;;;;;;;226.13;210.73;;;12.10;99.90;;;;;;5038291;28;20189;-85
2021/10/26 08:52:09;;;;;;;209.52;194.57;;;12.10;99.90;;;;;;5037868;28;20319;-84
2021/10/26 08:54:35;;;;;;;236.27;219.67;;;12.10;99.90;;;;;;5038958;28;20617;-84
2021/10/26 08:57:01;;;;;;;212.93;198.02;;;12.20;99.90;;;;;;5037694;28;20408;-84
2021/10/26 08:59:28;;;;;;;263.42;246.80;;;12.30;99.90;;;;;;5039475;28;20193;-83
2021/10/26 09:01:59;;;;;;;222.82;207.43;;;12.30;99.90;;;;;;5038239;28;20529;-84
2021/10/26 09:04:32;;;;;;;261.38;245.15;;;12.30;99.90;;;;;;5038551;28;20182;-84
2021/10/26 09:07:05;;;;;;;224.13;208.05;;;12.40;99.90;;;;;;5038844;28;20157;-84
2021/10/26 09:09:33;;;;;;;225.80;210.32;;;12.30;99.90;;;;;;5037609;28;20185;-84
2021/10/26 09:17:46;;;;;;;239.63;224.05;;;12.50;99.90;;;;;;5038974;28;20192;-84
2021/10/26 09:20:22;;;;;;;257.25;240.65;;;12.60;99.90;;;;;;5038862;28;20180;-84
2021/10/26 09:22:51;;;;;;;242.18;226.13;;;12.60;99.90;;;;;;5039014;28;20193;-84
2021/10/26 09:25:20;;;;;;;232.40;216.82;;;12.70;99.90;;;;;;5038652;28;20166;-84
2021/10/26 09:27:46;;;;;;;229.43;213.80;;;12.70;99.90;;;;;;5038602;28;20544;-84
2021/10/26 09:30:15;;;;;;;240.18;224.55;;;12.80;99.90;;;;;;5038396;28;20172;-84
2021/10/26 09:32:47;;;;;;;238.95;222.95;;;12.90;99.90;;;;;;5038341;28;20181;-84
2021/10/26 09:35:18;;;;;;;233.93;218.48;;;13.00;99.90;;;;;;5039016;28;20162;-84
2021/10/26 09:37:53;;;;;;;217.65;202.23;;;13.10;99.90;;;;;;5039570;28;20212;-84
2021/10/26 09:40:19;;;;;;;187.00;173.00;;;13.30;99.90;;;;;;5038160;28;20160;-84
2021/10/26 09:42:46;;;;;;;133.25;120.90;;;13.30;99.90;;;;;;5039311;28;20248;-84
2021/10/26 09:45:25;;;;;;;132.60;120.75;;;13.40;99.90;;;;;;5038796;28;20521;-84
2021/10/26 09:48:20;;;;;;;126.65;114.68;;;13.50;99.90;;;;;;5039096;28;20192;-84
2021/10/26 09:50:46;;;;;;;149.52;136.65;;;13.50;99.90;;;;;;5036971;28;20177;-84
2021/10/26 09:53:14;;;;;;;118.03;106.20;;;13.70;99.90;;;;;;5036559;28;20164;-83
2021/10/26 09:55:46;;;;;;;103.53;92.77;;;13.90;99.90;;;;;;5037562;28;20419;-83
2021/10/26 09:58:20;;;;;;;94.37;73.77;;;14.00;99.90;;;;;;5038660;28;20424;-83
2021/10/26 10:00:48;;;;;;;85.40;52.37;;;14.20;99.90;;;;;;5037748;28;20376;-84
2021/10/26 10:03:21;;;;;;;87.97;58.23;;;14.30;99.90;;;;;;5038618;28;20525;-84
2021/10/26 10:06:01;;;;;;;79.70;36.70;;;14.40;99.90;;;;;;5036935;28;20491;-83
2021/10/26 10:08:35;;;;;;;75.37;29.47;;;14.50;99.90;;;;;;5038148;28;20420;-83
2021/10/26 10:11:07;;;;;;;79.27;29.70;;;14.60;99.90;;;;;;5037483;28;20434;-83
2021/10/26 10:13:34;;;;;;;83.17;47.87;;;14.80;99.90;;;;;;5037744;28;20810;-83
2021/10/26 10:16:02;;;;;;;84.87;47.97;;;14.80;99.90;;;;;;5036170;28;20416;-83
2021/10/26 10:18:30;;;;;;;94.10;73.53;;;14.70;99.90;;;;;;5035955;28;20478;-83
2021/10/26 10:20:56;;;;;;;93.90;80.70;;;14.80;99.90;;;;;;5037830;28;20404;-83
2021/10/26 10:23:24;;;;;;;90.30;72.43;;;14.70;99.90;;;;;;5037433;28;20450;-83
2021/10/26 10:25:52;;;;;;;89.03;67.97;;;14.50;99.90;;;;;;5038256;28;20200;-83
2021/10/26 10:28:19;;;;;;;89.40;63.53;;;14.50;17.00;;;;;;5038080;28;20427;-83
2021/10/26 10:30:50;;;;;;;89.13;67.03;;;14.60;99.90;;;;;;5037734;28;20397;-83
2021/10/26 10:33:22;;;;;;;92.37;67.73;;;14.40;99.90;;;;;;5037191;28;20420;-83
2021/10/26 10:35:50;;;;;;;90.20;63.83;;;14.60;99.90;;;;;;5037789;28;20887;-83
2021/10/26 10:38:18;;;;;;;91.93;70.60;;;14.70;99.90;;;;;;5036535;28;20493;-83
2021/10/26 10:40:44;;;;;;;86.17;60.60;;;14.90;99.90;;;;;;5037680;28;20408;-83
2021/10/26 10:43:10;;;;;;;88.43;67.73;;;15.00;99.90;;;;;;5041773;28;20815;-83
2021/10/26 10:45:44;;;;;;;84.27;51.67;;;15.30;99.90;;;;;;5040785;28;20431;-83
2021/10/26 10:48:28;;;;;;;75.07;32.27;;;15.60;99.90;;;;;;5037539;28;20473;-83
2021/10/26 10:51:08;;;;;;;70.60;14.80;;;15.70;99.90;;;;;;5036777;28;20835;-84
2021/10/26 10:53:35;;;;;;;68.07;12.63;;;15.60;99.90;;;;;;5037543;28;20408;-83
2021/10/26 10:56:22;;;;;;;67.97;12.90;;;15.60;99.90;;;;;;5038423;28;20409;-83
2021/10/26 10:58:49;;;;;;;70.67;11.90;;;15.60;99.90;;;;;;5037143;28;20483;-83
2021/10/26 11:01:24;;;;;;;67.57;10.93;;;15.70;99.90;;;;;;5036494;28;20875;-83
2021/10/26 11:03:53;;;;;;;70.07;9.67;;;15.90;99.90;;;;;;5036216;28;20529;-83
2021/10/26 11:06:41;;;;;;;66.87;8.23;;;16.00;99.90;;;;;;5037774;28;20407;-83
2021/10/26 11:09:25;;;;;;;67.03;8.90;;;16.20;99.90;;;;;;5037443;28;20423;-83
2021/10/26 11:12:11;;;;;;;72.73;19.13;;;16.40;99.90;;;;;;5037868;28;20464;-84
2021/10/26 11:14:54;;;;;;;68.10;13.23;;;16.60;99.90;;;;;;5036232;28;20443;-82
2021/10/26 11:17:32;;;;;;;73.47;23.97;;;16.80;99.90;;;;;;5036072;28;20744;-82
2021/10/26 11:20:08;;;;;;;76.80;31.80;;;17.00;99.90;;;;;;5038094;28;20472;-83
2021/10/26 11:23:05;;;;;;;75.70;31.37;;;17.20;99.90;;;;;;5038308;28;20418;-83
2021/10/26 11:25:36;;;;;;;71.57;22.33;;;17.30;99.90;;;;;;5029231;28;20451;-84
2021/10/26 11:28:12;;;;;;;71.27;21.33;;;17.00;99.90;;;;;;5041100;28;20423;-83
2021/10/26 11:30:47;;;;;;;72.53;24.80;;;17.10;97.80;;;;;;5041796;28;20754;-83
2021/10/26 11:33:12;;;;;;;69.87;19.30;;;17.00;97.10;;;;;;5040625;28;20514;-83
2021/10/26 11:35:52;;;;;;;75.30;26.60;;;17.10;98.70;;;;;;5041421;28;20408;-84
2021/10/26 11:38:27;;;;;;;71.27;21.30;;;17.20;97.50;;;;;;5041846;28;20195;-83
2021/10/26 11:41:12;;;;;;;71.90;24.83;;;17.20;94.70;;;;;;5041385;28;20393;-82
2021/10/26 11:43:49;;;;;;;74.97;22.37;;;17.00;95.70;;;;;;5040117;28;20446;-83
2021/10/26 11:46:23;;;;;;;71.60;21.90;;;16.90;95.20;;;;;;5042692;28;20436;-84
2021/10/26 11:48:51;;;;;;;70.80;18.73;;;16.70;96.30;;;;;;5040148;28;20428;-84
2021/10/26 11:51:38;;;;;;;71.00;16.80;;;16.80;98.50;;;;;;5040785;28;20405;-83
2021/10/26 11:54:06;;;;;;;70.27;16.13;;;16.80;96.90;;;;;;5038299;28;20398;-83
2021/10/26 11:56:41;;;;;;;69.17;12.13;;;16.70;96.10;;;;;;5040884;28;20467;-83
2021/10/26 11:59:18;;;;;;;71.03;14.90;;;16.60;99.90;;;;;;5040169;28;20420;-83
2021/10/26 12:01:52;;;;;;;68.97;17.30;;;16.60;99.20;;;;;;5040970;28;20391;-83
2021/10/26 12:04:38;;;;;;;71.37;13.43;;;16.40;98.00;;;;;;5040984;28;20991;-83
2021/10/26 12:07:10;;;;;;;74.40;13.33;;;16.40;99.90;;;;;;5041209;28;20419;-83
2021/10/26 12:09:49;;;;;;;68.00;13.67;;;16.40;99.90;;;;;;5041245;28;20423;-83
2021/10/26 12:12:20;;;;;;;67.33;10.27;;;16.30;99.40;;;;;;5040910;28;20380;-83
2021/10/26 12:14:54;;;;;;;68.60;13.00;;;16.30;99.90;;;;;;5041242;28;20463;-83
2021/10/26 12:17:33;;;;;;;73.13;10.73;;;16.30;99.90;;;;;;5041057;28;20394;-83
2021/10/26 12:20:13;;;;;;;67.70;10.60;;;16.30;99.90;;;;;;5041229;28;20387;-83
2021/10/26 12:22:43;;;;;;;67.90;11.97;;;16.20;99.90;;;;;;5040518;28;20767;-83
2021/10/26 12:25:22;;;;;;;66.90;10.70;;;16.20;99.90;;;;;;5041116;28;20417;-83
2021/10/26 12:27:56;;;;;;;66.90;10.13;;;16.20;99.90;;;;;;5041274;28;20455;-84
2021/10/26 12:30:39;;;;;;;68.77;8.90;;;16.00;99.90;;;;;;5039302;28;20433;-84